Time;durP1;ratioP1;P1;durP2;ratioP2;P2;SDS_P1;SDS_P2;PMS_P1;PMS_P2;Temp;Humidity;BMP_temperature;BMP_pressure;BME280_temperature;BME280_humidity;BME280_pressure;Samples;Min_cycle;Max_cycle;Signal;HPM_P1;HPM_P2
2021/03/14 17:37:05;;;;;;;8.53;3.47;;;;;;;15.41;60.07;101352.88;5093614;27;1180774;-65
2021/03/14 17:39:31;;;;;;;10.73;2.57;;;;;;;15.76;59.78;101330.38;5115382;28;20036;-64
2021/03/14 17:41:58;;;;;;;17.63;3.37;;;;;;;16.13;58.80;101357.88;5121789;27;20126;-65
2021/03/14 17:44:25;;;;;;;8.97;3.23;;;;;;;16.36;58.54;101350.59;5121926;28;20083;-65
2021/03/14 17:46:52;;;;;;;9.53;3.80;;;;;;;16.41;58.11;101329.94;5118536;28;20474;-65
2021/03/14 17:49:18;;;;;;;8.47;2.60;;;;;;;16.74;57.71;101364.75;5122176;27;20070;-64
2021/03/14 17:51:45;;;;;;;10.10;2.67;;;;;;;16.77;57.73;101345.28;5123971;27;20050;-64
2021/03/14 17:54:12;;;;;;;11.77;2.70;;;;;;;16.93;57.39;101356.38;5120034;28;20069;-64
2021/03/14 17:56:38;;;;;;;7.07;3.07;;;;;;;16.85;57.10;101338.13;5123832;27;20047;-66
2021/03/14 17:59:05;;;;;;;23.17;8.77;;;;;;;17.00;57.69;101351.19;5122187;27;20130;-65
2021/03/14 18:01:32;;;;;;;16.92;4.75;;;;;;;17.32;57.20;101349.56;5116707;27;20044;-64
2021/03/14 18:03:59;;;;;;;13.50;3.00;;;;;;;17.19;57.03;101352.00;5119898;28;20043;-64
2021/03/14 18:06:25;;;;;;;10.07;3.03;;;;;;;17.08;57.26;101353.31;5118266;27;20508;-64
2021/03/14 18:08:52;;;;;;;7.93;3.73;;;;;;;16.91;57.06;101333.25;5121025;27;20097;-65
2021/03/14 18:11:18;;;;;;;9.57;4.07;;;;;;;16.88;57.17;101345.16;5117004;28;20138;-65
2021/03/14 18:13:44;;;;;;;24.93;5.17;;;;;;;16.83;57.06;101343.25;5115736;28;20050;-66
2021/03/14 18:16:11;;;;;;;13.43;3.33;;;;;;;16.94;56.88;101360.88;5119121;28;20044;-64
2021/03/14 18:18:37;;;;;;;9.10;3.40;;;;;;;16.75;56.78;101346.72;5118318;27;20135;-64
2021/03/14 18:21:05;;;;;;;12.00;3.75;;;;;;;16.67;56.77;101355.84;5123090;27;20058;-64
2021/03/14 18:23:31;;;;;;;17.20;4.50;;;;;;;16.62;56.92;101359.56;5115955;28;20046;-63
2021/03/14 18:25:58;;;;;;;14.20;3.07;;;;;;;16.56;57.07;101367.25;5096156;28;20044;-63
2021/03/14 18:28:24;;;;;;;11.27;3.13;;;;;;;16.38;57.07;101359.59;5102926;28;20050;-64
2021/03/14 18:30:51;;;;;;;12.43;3.03;;;;;;;15.95;57.36;101300.31;5097182;28;20043;-64
2021/03/14 18:33:18;;;;;;;14.23;2.83;;;;;;;16.22;57.39;101363.72;5103447;28;20048;-63
2021/03/14 18:35:45;;;;;;;14.03;3.10;;;;;;;16.13;57.87;101379.59;5096139;28;20433;-64
2021/03/14 18:38:11;;;;;;;16.07;4.53;;;;;;;16.06;57.64;101382.75;5101668;28;20040;-63
2021/03/14 18:40:37;;;;;;;12.73;4.20;;;;;;;15.98;57.84;101378.63;5098462;28;20082;-63
2021/03/14 18:43:05;;;;;;;18.83;5.80;;;;;;;15.85;57.87;101366.06;5097243;28;20131;-64
2021/03/14 18:45:32;;;;;;;20.23;5.23;;;;;;;15.79;58.25;101372.03;5100526;28;20130;-65
2021/03/14 18:47:59;;;;;;;14.70;4.70;;;;;;;15.54;58.48;101367.44;5090010;28;20577;-63
2021/03/14 18:50:26;;;;;;;21.73;6.13;;;;;;;15.64;58.49;101387.91;5086859;28;20039;-63
2021/03/14 18:52:54;;;;;;;24.07;5.33;;;;;;;15.59;58.72;101389.94;5088598;28;20068;-63
2021/03/14 18:55:25;;;;;;;14.73;3.80;;;;;;;15.52;58.89;101395.91;5083472;28;20146;-65
2021/03/14 18:57:56;;;;;;;13.40;4.93;;;;;;;15.39;58.93;101382.47;5086445;28;20120;-62
2021/03/14 19:00:24;;;;;;;26.77;5.90;;;;;;;15.38;59.03;101383.59;5086167;28;20906;-64
2021/03/14 19:02:50;;;;;;;22.27;5.17;;;;;;;15.32;59.33;101399.69;5080776;28;20045;-63
2021/03/14 19:05:17;;;;;;;14.67;4.00;;;;;;;15.22;59.21;101385.69;5086582;28;21100;-65
2021/03/14 19:07:44;;;;;;;12.93;4.30;;;;;;;15.25;59.24;101393.56;5085163;28;20054;-63
2021/03/14 19:10:13;;;;;;;10.20;3.97;;;;;;;15.25;59.26;101401.16;5088416;28;20051;-64
2021/03/14 19:12:41;;;;;;;14.73;6.10;;;;;;;15.23;59.42;101418.31;5087256;28;20428;-64
2021/03/14 19:15:11;;;;;;;;;;;;;;;15.28;58.72;101409.88;5088982;28;20044;-65
2021/03/14 19:17:38;;;;;;;12.27;5.33;;;;;;;15.19;59.20;101411.59;5085573;28;20401;-63
2021/03/14 19:20:09;;;;;;;18.23;4.27;;;;;;;15.11;59.33;101403.75;5082555;28;20443;-65
2021/03/14 19:22:37;;;;;;;15.73;4.43;;;;;;;15.02;59.64;101399.88;5083907;28;20129;-65
2021/03/14 19:25:06;;;;;;;15.13;4.57;;;;;;;15.06;59.79;101412.25;5078915;28;20056;-63
2021/03/14 19:27:32;;;;;;;14.87;3.97;;;;;;;14.99;59.76;101412.56;5082779;28;20044;-63
2021/03/14 19:29:58;;;;;;;13.23;4.10;;;;;;;15.02;59.73;101411.13;5090712;28;20052;-65
2021/03/14 19:32:27;;;;;;;19.17;4.40;;;;;;;14.97;59.83;101413.97;5086336;28;20097;-62
2021/03/14 19:34:53;;;;;;;17.00;3.53;;;;;;;15.01;59.86;101412.25;5086160;28;20076;-62
2021/03/14 19:37:20;;;;;;;17.80;5.97;;;;;;;14.98;59.91;101415.66;5086932;28;20127;-65
2021/03/14 19:39:46;;;;;;;28.63;4.07;;;;;;;14.99;60.30;101422.97;5088113;28;20044;-64
2021/03/14 19:42:13;;;;;;;14.00;4.73;;;;;;;14.92;60.04;101420.47;5086473;28;20471;-65
2021/03/14 19:44:41;;;;;;;17.20;5.00;;;;;;;14.84;60.01;101415.44;5087488;28;20117;-65
2021/03/14 19:47:07;;;;;;;18.83;5.30;;;;;;;14.90;60.16;101420.72;5086959;28;20134;-65
2021/03/14 19:49:34;;;;;;;22.53;5.63;;;;;;;14.84;60.27;101415.44;5086411;28;20144;-65
2021/03/14 19:52:00;;;;;;;16.30;4.90;;;;;;;14.77;60.35;101415.75;5084648;28;20441;-68
2021/03/14 19:54:27;;;;;;;18.10;5.93;;;;;;;14.78;60.43;101417.44;5082775;28;20072;-67
2021/03/14 19:56:53;;;;;;;17.87;5.50;;;;;;;14.73;60.40;101414.63;5084930;28;20048;-65
2021/03/14 19:59:20;;;;;;;19.43;5.63;;;;;;;14.74;60.50;101419.16;5083382;28;20047;-71
2021/03/14 20:01:46;;;;;;;14.57;5.30;;;;;;;14.77;60.46;101432.63;5075089;28;20068;-62
2021/03/14 20:04:13;;;;;;;17.50;5.17;;;;;;;14.66;60.71;101422.53;5085410;28;20043;-61
2021/03/14 20:06:42;;;;;;;14.83;5.00;;;;;;;14.58;60.74;101420.31;5089671;28;20097;-62
2021/03/14 20:09:09;;;;;;;17.87;5.20;;;;;;;14.55;60.72;101424.53;5084487;28;21070;-60
2021/03/14 20:11:35;;;;;;;18.93;5.37;;;;;;;14.46;60.85;101413.03;5087930;28;20048;-61
2021/03/14 20:14:02;;;;;;;21.70;5.30;;;;;;;14.52;60.98;101429.91;5090460;28;20040;-64
2021/03/14 20:16:29;;;;;;;19.40;5.17;;;;;;;14.46;61.21;101421.47;5089330;28;20151;-62
2021/03/14 20:18:56;;;;;;;16.67;6.30;;;;;;;14.27;61.26;101400.72;5078302;28;20390;-70
2021/03/14 20:21:22;;;;;;;19.27;6.73;;;;;;;14.35;61.50;101422.59;5084889;28;20136;-72
2021/03/14 20:23:49;;;;;;;15.77;5.70;;;;;;;14.34;61.56;101417.28;5090264;28;20484;-73
2021/03/14 20:26:16;;;;;;;17.70;5.70;;;;;;;14.36;61.69;101426.28;5083619;28;20163;-66
2021/03/14 20:28:42;;;;;;;22.90;6.50;;;;;;;14.33;61.81;101427.69;5083745;28;20051;-70
2021/03/14 20:31:10;;;;;;;17.47;5.97;;;;;;;14.30;61.73;101427.41;5083445;28;20063;-78
2021/03/14 20:33:36;;;;;;;16.20;5.67;;;;;;;14.22;61.92;101417.56;5080657;28;20044;-75
2021/03/14 20:36:03;;;;;;;23.43;4.97;;;;;;;14.22;62.07;101423.19;5078866;28;20059;-74
2021/03/14 20:38:30;;;;;;;24.33;6.27;;;;;;;14.18;62.31;101425.72;5085558;28;20148;-76
2021/03/14 20:40:57;;;;;;;24.03;6.40;;;;;;;14.17;62.31;101420.41;5084975;28;20188;-76
2021/03/14 20:43:23;;;;;;;13.77;5.77;;;;;;;14.20;62.08;101429.09;5081791;28;20047;-70
2021/03/14 20:45:49;;;;;;;17.50;4.90;;;;;;;14.05;62.15;101400.19;5079999;28;20549;-71
2021/03/14 20:48:16;;;;;;;19.87;6.67;;;;;;;14.13;62.19;101419.28;5088831;28;20036;-76
2021/03/14 20:50:42;;;;;;;20.33;5.63;;;;;;;14.12;62.13;101426.00;5085648;28;20044;-69
2021/03/14 20:53:09;;;;;;;19.00;7.17;;;;;;;14.00;62.27;101412.28;5087371;28;20147;-69
2021/03/14 20:55:35;;;;;;;20.97;7.57;;;;;;;14.01;62.56;101408.34;5079331;28;20044;-73
2021/03/14 20:58:02;;;;;;;20.87;9.83;;;;;;;14.05;62.59;101422.66;5080920;28;20123;-71
2021/03/14 21:00:29;;;;;;;21.20;7.60;;;;;;;14.02;62.72;101411.97;5078330;28;20040;-69
2021/03/14 21:02:56;;;;;;;24.97;7.63;;;;;;;13.94;62.88;101413.41;5089187;28;20054;-69
2021/03/14 21:05:31;;;;;;;22.10;6.17;;;;;;;13.82;63.16;101415.69;5083542;28;20415;-74
2021/03/14 21:08:04;;;;;;;19.47;6.07;;;;;;;13.79;63.61;101421.84;5076552;28;20048;-75
2021/03/14 21:10:33;;;;;;;23.83;7.40;;;;;;;13.66;63.90;101400.78;5085618;28;20043;-73
2021/03/14 21:13:00;;;;;;;29.93;6.53;;;;;;;13.70;64.23;101413.97;5088578;28;20075;-70
2021/03/14 21:15:28;;;;;;;24.57;6.80;;;;;;;13.66;64.39;101417.63;5082877;28;20056;-75
2021/03/14 21:17:58;;;;;;;16.73;5.78;;;;;;;13.63;64.53;101416.22;5081959;28;20048;-77
2021/03/14 21:20:25;;;;;;;16.87;6.67;;;;;;;13.60;64.65;101408.34;5081397;28;20054;-77
2021/03/14 21:22:51;;;;;;;21.60;7.93;;;;;;;13.65;64.72;101413.16;5070542;28;20497;-70
2021/03/14 21:25:19;;;;;;;19.83;6.67;;;;;;;13.63;64.65;101419.03;5087770;28;20048;-68
2021/03/14 21:27:46;;;;;;;21.70;6.30;;;;;;;13.62;64.39;101405.28;5087826;28;20404;-69
2021/03/14 21:30:13;;;;;;;17.23;6.43;;;;;;;13.69;64.21;101417.06;5072636;28;20055;-71
2021/03/14 21:32:40;;;;;;;19.40;8.00;;;;;;;13.72;64.24;101422.13;5081866;28;20145;-75
2021/03/14 21:35:07;;;;;;;21.27;7.00;;;;;;;13.64;64.26;101417.06;5087716;28;20044;-74
2021/03/14 21:37:34;;;;;;;21.73;7.83;;;;;;;13.55;64.46;101411.16;5085356;28;20060;-75
2021/03/14 21:40:02;;;;;;;21.10;8.03;;;;;;;13.62;64.16;101422.97;5087059;28;20036;-74
2021/03/14 21:42:28;;;;;;;24.83;7.27;;;;;;;13.49;64.31;101407.50;5081219;28;20037;-76
2021/03/14 21:44:55;;;;;;;23.93;8.37;;;;;;;13.58;64.75;101421.84;5084390;28;21017;-76
2021/03/14 21:47:28;;;;;;;24.83;8.50;;;;;;;13.51;64.89;101416.50;5081192;28;20036;-79
2021/03/14 21:49:56;;;;;;;32.07;9.53;;;;;;;13.43;64.85;101417.03;5084796;28;20446;-71
2021/03/14 21:52:24;;;;;;;36.63;8.53;;;;;;;13.52;65.02;101425.75;5082848;28;20045;-72
2021/03/14 21:54:51;;;;;;;25.53;7.93;;;;;;;13.49;64.89;101420.69;5087669;28;20048;-68
2021/03/14 21:57:18;;;;;;;25.13;7.87;;;;;;;13.41;64.63;101401.63;5082111;28;20132;-68
2021/03/14 21:59:44;;;;;;;25.60;8.47;;;;;;;13.61;64.40;101420.44;5078702;28;20130;-74
2021/03/14 22:02:24;;;;;;;25.73;9.40;;;;;;;13.68;64.22;101419.03;5089194;28;20477;-75
2021/03/14 22:04:50;;;;;;;19.17;6.97;;;;;;;13.63;64.12;101413.41;5080265;28;20040;-78
2021/03/14 22:07:20;;;;;;;25.70;8.87;;;;;;;13.73;64.22;101416.22;5081687;28;20583;-68
2021/03/14 22:09:47;;;;;;;20.83;8.30;;;;;;;13.40;64.02;101372.72;5081011;28;20040;-73
2021/03/14 22:12:14;;;;;;;22.93;7.87;;;;;;;13.56;64.14;101395.16;5088389;28;20051;-75
2021/03/14 22:14:41;;;;;;;19.13;7.63;;;;;;;13.71;64.07;101417.66;5085562;28;20044;-70
2021/03/14 22:17:09;;;;;;;23.03;8.63;;;;;;;13.49;64.04;101378.63;5080594;28;20054;-65
2021/03/14 22:19:36;;;;;;;20.93;7.73;;;;;;;13.69;64.23;101412.28;5077470;28;20044;-67
2021/03/14 22:22:06;;;;;;;18.73;6.97;;;;;;;13.72;64.08;101413.72;5084657;28;20048;-66
2021/03/14 22:24:34;;;;;;;20.23;8.03;;;;;;;13.75;63.88;101427.19;5088717;28;20131;-68
2021/03/14 22:27:00;;;;;;;13.33;7.17;;;;;;;13.74;63.86;101431.09;5090023;28;20044;-65
2021/03/14 22:29:27;;;;;;;20.53;7.67;;;;;;;13.72;64.03;101425.78;5082355;28;20155;-68
2021/03/14 22:31:53;;;;;;;17.03;7.30;;;;;;;13.75;63.69;101421.56;5088894;28;20066;-64
2021/03/14 22:34:20;;;;;;;18.43;7.80;;;;;;;13.72;63.69;101410.91;5089280;28;20048;-64
2021/03/14 22:36:47;;;;;;;14.00;6.93;;;;;;;13.78;63.63;101415.41;5089790;28;20063;-66
2021/03/14 22:39:14;;;;;;;21.97;8.00;;;;;;;13.70;63.71;101407.53;5090182;28;20048;-66
2021/03/14 22:41:40;;;;;;;19.97;8.10;;;;;;;13.80;63.68;101413.13;5082544;28;20052;-66
2021/03/14 22:44:08;;;;;;;24.53;7.30;;;;;;;13.77;63.48;101416.50;5087584;28;20050;-65
2021/03/14 22:46:34;;;;;;;18.40;7.40;;;;;;;13.71;63.66;101407.25;5086803;28;20488;-66
2021/03/14 22:49:01;;;;;;;19.67;7.60;;;;;;;13.84;63.44;101424.63;5087090;28;20048;-64
2021/03/14 22:51:29;;;;;;;25.83;7.60;;;;;;;13.76;63.33;101412.00;5089439;28;20052;-65
2021/03/14 22:53:55;;;;;;;16.33;8.00;;;;;;;13.80;63.51;101410.31;5081991;28;20045;-65
2021/03/14 22:56:21;;;;;;;17.37;7.53;;;;;;;13.45;63.46;101355.88;5083776;28;20048;-65
2021/03/14 22:58:48;;;;;;;18.67;6.10;;;;;;;13.83;63.34;101421.00;5088877;28;20036;-65
2021/03/14 23:01:14;;;;;;;14.93;7.30;;;;;;;13.80;63.13;101410.31;5088562;28;20046;-64
2021/03/14 23:03:41;;;;;;;18.57;6.40;;;;;;;13.87;63.15;101419.31;5084162;28;20040;-65
2021/03/14 23:06:08;;;;;;;12.63;6.00;;;;;;;13.89;63.04;101417.06;5086030;28;20127;-64
2021/03/14 23:08:36;;;;;;;16.70;6.70;;;;;;;13.35;62.68;101327.00;5082896;28;21555;-66
2021/03/14 23:11:09;;;;;;;14.73;6.50;;;;;;;13.84;62.77;101407.78;5090206;28;20419;-64
2021/03/14 23:13:36;;;;;;;14.07;5.87;;;;;;;13.89;62.57;101405.84;5085127;28;20040;-65
2021/03/14 23:16:04;;;;;;;13.00;5.23;;;;;;;13.99;62.15;101411.44;5089902;28;20044;-69
2021/03/14 23:18:31;;;;;;;10.07;5.60;;;;;;;13.92;62.07;101394.03;5088994;28;20515;-66
2021/03/14 23:20:58;;;;;;;11.53;4.87;;;;;;;13.99;61.88;101405.00;5083828;28;20051;-65
2021/03/14 23:23:32;;;;;;;10.33;5.53;;;;;;;13.93;61.86;101398.53;5083997;28;20066;-65
2021/03/14 23:25:59;;;;;;;13.33;5.40;;;;;;;13.97;61.77;101407.22;5084270;28;20058;-65
2021/03/14 23:28:33;;;;;;;13.30;5.83;;;;;;;13.85;61.85;101393.50;5089126;28;20048;-65
2021/03/14 23:31:00;;;;;;;15.10;5.13;;;;;;;13.94;61.61;101414.25;5090817;28;20067;-65
2021/03/14 23:33:27;;;;;;;9.23;5.70;;;;;;;13.92;61.69;101405.28;5088316;28;20126;-66
2021/03/14 23:35:57;;;;;;;13.93;5.70;;;;;;;13.95;61.69;101410.31;5089240;28;20052;-68
2021/03/14 23:38:23;;;;;;;8.87;6.00;;;;;;;13.87;61.44;101385.59;5089483;28;20047;-65
2021/03/14 23:40:50;;;;;;;13.27;5.07;;;;;;;13.93;61.29;101401.34;5082774;28;20041;-65
2021/03/14 23:43:21;;;;;;;16.80;7.03;;;;;;;13.88;61.40;101404.16;5091779;28;20098;-68
2021/03/14 23:45:47;;;;;;;12.43;5.43;;;;;;;13.80;61.35;101403.88;5084005;28;20058;-68
2021/03/14 23:48:23;;;;;;;11.40;5.60;;;;;;;13.71;61.31;101398.84;5090133;28;20048;-68
2021/03/14 23:50:50;;;;;;;12.33;5.67;;;;;;;13.73;61.33;101412.56;5082876;28;20086;-69
2021/03/14 23:53:20;;;;;;;14.60;6.43;;;;;;;13.66;61.57;101390.41;5083473;28;20488;-66
2021/03/14 23:55:50;;;;;;;12.50;6.20;;;;;;;13.69;61.59;101406.69;5091132;28;20040;-66
2021/03/14 23:58:17;;;;;;;14.50;5.77;;;;;;;13.65;61.53;101396.31;5090593;28;20103;-65
